Latest Coastal Weather Observations for Hogan Island

IDT60701

Issued at 2:52 am EDT Sunday 1 March 2015 (issued every 10 minutes, with the page automatically refreshed every 10 minutes)

About coastal observations | Map of coastal stations | Coastal observations for TAS | Marine services | Other Formats
Station Details ID: 200838 Name: HOGAN ISLAND Lat: -39.22 Lon: 146.98 Height: 116.0 m
Data from the previous 72 hours. | See also: Recent months at Hogan Island
Date/Time
EDT
Temp

°C
Wind Pressure Rain
since 9am
mm
Weather Cloud Vis
km
Sea
Height
m
Swell
Dir
 
Speed
knots
Gust
knots
hPa Trend Height
m
Period
s
Dir
01/02:50am 16.5 SW 24 28 1003.3 - 7.6 - - - - - - -
01/02:47am 16.8 W 21 26 1003.2 - 7.4 - - - - - - -
01/02:30am 17.4 NW 8 11 1003.5 - 7.0 - - - - - - -
01/02:00am 17.1 N 4 6 1003.5 - 7.0 - - - - - - -
01/01:30am 17.0 N 4 7 1003.7 - 6.6 - - - - - - -
01/01:21am 17.2 ENE 1 4 1003.7 - 6.6 - - - - - - -
01/01:07am 17.3 E 12 15 1001.7 - 6.6 - - - - - - -
01/01:00am 17.4 S 7 9 1003.8 - 6.4 - - - - - - -
01/12:30am 17.3 ESE 8 9 1004.1 - 4.8 - - - - - - -
01/12:00am 17.4 S 10 13 1004.3 - 3.4 - - - - - - -
 
Date/Time
EDT
Temp

°C
Wind Pressure Rain
since 9am
mm
Weather Cloud Vis
km
Sea
Height
m
Swell
Dir
 
Speed
knots
Gust
knots
hPa Trend Height
m
Period
s
Dir
28/11:30pm 17.7 SSW 12 17 1004.9 - 2.2 - - - - - - -
28/11:00pm 18.1 WSW 15 20 1005.0 - 0.8 - - - - - - -
28/10:30pm 18.8 SW 16 23 1003.7 - 0.0 - - - - - - -
28/10:29pm 19.0 SW 15 23 1003.6 - 0.0 - - - - - - -
28/10:25pm 19.8 N 8 13 1003.1 - 0.0 - - - - - - -
28/10:00pm 18.9 E 14 16 1001.0 - 0.0 - - - - - - -
28/09:30pm 18.7 ENE 15 17 1001.6 - 0.0 - - - - - - -
28/09:00pm 18.6 ENE 14 16 1001.0 - 0.0 - - - - - - -
28/08:30pm 19.1 NE 20 23 1001.6 - 0.0 - - - - - - -
28/08:00pm 18.6 NE 15 19 1001.8 - 0.0 - - - - - - -
28/07:30pm 18.7 ENE 10 12 1002.1 - 0.0 - - - - - - -
28/07:00pm 20.2 NE 10 13 1002.6 - 0.0 - - - - - - -
28/06:30pm 20.1 NNE 6 7 1003.4 - 0.0 - - - - - - -
28/06:00pm 20.2 NE 7 8 1003.4 - 0.0 - - - - - - -
28/05:30pm 20.3 NE 5 7 1003.7 - 0.0 - - - - - - -
28/05:00pm 20.0 ENE 5 6 1004.1 - 0.0 - - - - - - -
28/04:30pm 20.8 W 5 7 1004.4 - 0.0 - - - - - - -
28/04:00pm 20.6 W 6 7 1004.4 - 0.0 - - - - - - -
28/03:30pm 20.6 NNW 8 9 1004.6 - 0.0 - - - - - - -
28/03:00pm 20.5 NNW 9 13 1004.9 - 0.0 - - - - - - -
28/02:30pm 19.5 N 9 11 1005.0 - 0.0 - - - - - - -
28/02:00pm 18.9 N 13 16 1005.5 - 0.0 - - - - - - -
28/01:30pm 19.6 N 13 17 1005.5 - 0.0 - - - - - - -
28/01:00pm 19.0 NNE 15 17 1005.5 - 0.0 - - - - - - -
28/12:30pm 19.0 NNE 16 19 1005.5 - 0.0 - - - - - - -
28/12:00pm 19.4 NNE 17 21 1005.5 - 0.0 - - - - - - -
28/11:30am 19.8 NNE 17 20 1006.2 - 0.0 - - - - - - -
28/11:00am 18.9 NNE 18 22 1006.5 - 0.0 - - - - - - -
28/10:30am 18.7 NNE 19 24 1006.5 - 0.0 - - - - - - -
28/10:00am 18.5 NNE 18 22 1006.9 - 0.0 - - - - - - -
28/09:30am 18.2 N 18 20 1007.4 - 0.0 - - - - - - -
28/09:00am 17.4 NNE 18 21 1006.3 - 0.0 - - - - - - -
28/08:30am 17.4 NE 17 20 1006.7 - 0.0 - - - - - - -
28/08:00am 16.6 NE 18 22 1006.7 - 0.0 - - - - - - -
28/07:30am 16.4 NE 19 21 1006.5 - 0.0 - - - - - - -
28/07:00am 16.1 NE 15 18 1007.0 - 0.0 - - - - - - -
28/06:30am 15.8 NE 12 14 1007.4 - 0.0 - - - - - - -
28/06:00am 15.4 NE 11 12 1007.3 - 0.0 - - - - - - -
28/05:30am 15.1 NNE 9 11 1008.0 - 0.0 - - - - - - -
28/05:00am 14.8 NNE 10 11 1008.1 - 0.0 - - - - - - -
28/04:30am 14.7 NNE 7 8 1008.6 - 0.0 - - - - - - -
28/04:00am 14.7 NNE 8 9 1008.9 - 0.0 - - - - - - -
28/03:30am 14.8 NNW 5 6 1009.7 - 0.0 - - - - - - -
28/03:00am 15.0 NNW 5 7 1009.4 - 0.0 - - - - - - -
28/02:30am 15.2 NNW 5 8 1009.6 - 0.0 - - - - - - -
28/02:00am 15.1 NW 5 8 1009.8 - 0.0 - - - - - - -
28/01:30am 14.9 WNW 6 8 1010.1 - 0.0 - - - - - - -
28/01:00am 14.8 W 7 8 1010.6 - 0.0 - - - - - - -
28/12:30am 14.7 W 8 9 1011.0 - 0.0 - - - - - - -
28/12:00am 14.7 W 8 9 1010.7 - 0.0 - - - - - - -
 
Date/Time
EDT
Temp

°C
Wind Pressure Rain
since 9am
mm
Weather Cloud Vis
km
Sea
Height
m
Swell
Dir
 
Speed
knots
Gust
knots
hPa Trend Height
m
Period
s
Dir
27/11:30pm 14.8 WSW 8 10 1011.2 - 0.0 - - - - - - -
27/11:00pm 14.9 WSW 11 13 1011.3 - 0.0 - - - - - - -
27/10:30pm 14.9 WSW 12 13 1011.2 - 0.0 - - - - - - -
27/10:00pm 15.0 WSW 14 18 1011.1 - 0.0 - - - - - - -
27/09:30pm 15.3 WSW 16 17 1011.0 - 0.0 - - - - - - -
27/09:00pm 15.2 WSW 15 18 1010.4 - 0.0 - - - - - - -
27/08:30pm 15.1 WSW 12 14 1010.3 - 0.0 - - - - - - -
27/08:00pm 15.5 WSW 13 16 1010.4 - 0.0 - - - - - - -
27/07:30pm 16.3 WSW 11 13 1010.0 - 0.0 - - - - - - -
27/07:00pm 16.1 WSW 7 9 1009.5 - 0.0 - - - - - - -
27/06:30pm 16.1 SW 9 13 1009.6 - 0.0 - - - - - - -
27/06:00pm 16.3 WSW 13 16 1009.9 - 0.0 - - - - - - -
27/05:30pm 16.8 WSW 13 16 1010.4 - 0.0 - - - - - - -
27/05:00pm 17.1 SW 11 14 1009.9 - 0.0 - - - - - - -
27/04:30pm 17.7 SW 12 15 1010.3 - 0.0 - - - - - - -
27/04:00pm 18.0 SW 13 15 1010.1 - 0.0 - - - - - - -
27/03:30pm 17.4 SW 14 17 1010.3 - 0.0 - - - - - - -
27/03:00pm 19.4 SW 12 14 1010.4 - 0.0 - - - - - - -
27/02:30pm 19.5 SW 11 14 1010.7 - 0.0 - - - - - - -
27/02:00pm 20.1 SW 12 14 1011.1 - 0.0 - - - - - - -
27/01:30pm 19.0 SW 9 12 1010.7 - 0.0 - - - - - - -
27/01:00pm 19.7 SW 11 13 1011.0 - 0.0 - - - - - - -
27/12:30pm 20.2 SW 13 16 1011.1 - 0.0 - - - - - - -
27/12:00pm 19.4 SW 10 11 1010.9 - 0.0 - - - - - - -
27/11:30am 19.7 SW 11 13 1011.5 - 0.0 - - - - - - -
27/11:00am 19.8 SW 8 11 1011.3 - 0.0 - - - - - - -
27/10:30am 18.6 SW 10 13 1011.2 - 0.0 - - - - - - -
27/10:00am 18.3 SW 8 9 1011.0 - 0.0 - - - - - - -
27/09:30am 17.0 S 7 8 1010.6 - 0.0 - - - - - - -
27/09:00am 17.2 S 7 9 1010.4 - 0.2 - - - - - - -
27/08:30am 16.7 S 8 9 1010.6 - 0.0 - - - - - - -
27/08:00am 16.0 S 10 12 1010.3 - 0.0 - - - - - - -
27/07:30am 16.1 SW 10 12 1010.4 - 0.0 - - - - - - -
27/07:00am 16.4 SW 11 14 1010.1 - 0.0 - - - - - - -
27/06:30am 16.4 SW 9 12 1009.8 - 0.0 - - - - - - -
27/06:00am 16.5 SW 10 13 1009.4 - 0.0 - - - - - - -
27/05:30am 16.7 WSW 9 11 1009.8 - 0.0 - - - - - - -
27/05:00am 16.6 WSW 9 11 1009.6 - 0.0 - - - - - - -
27/04:30am 16.3 WSW 9 11 1009.8 - 0.0 - - - - - - -
27/04:00am 16.4 WSW 9 11 1009.9 - 0.0 - - - - - - -
27/03:30am 16.4 WSW 10 12 1010.1 - 0.0 - - - - - - -
27/03:00am 16.6 W 11 14 1009.8 - 0.0 - - - - - - -
27/02:30am 16.7 W 14 16 1010.0 - 0.0 - - - - - - -
27/02:00am 16.7 WSW 13 15 1010.3 - 0.0 - - - - - - -
27/01:30am 16.7 WSW 12 13 1010.7 - 0.0 - - - - - - -
27/01:00am 16.6 WSW 12 14 1010.9 - 0.0 - - - - - - -
27/12:30am 16.8 W 13 15 1010.9 - 0.0 - - - - - - -
27/12:00am 16.5 W 14 16 1010.4 - 0.0 - - - - - - -
 
Date/Time
EDT
Temp

°C
Wind Pressure Rain
since 9am
mm
Weather Cloud Vis
km
Sea
Height
m
Swell
Dir
 
Speed
knots
Gust
knots
hPa Trend Height
m
Period
s
Dir
26/11:30pm 16.5 W 14 16 1010.7 - 0.0 - - - - - - -
26/11:00pm 16.5 WSW 15 17 1010.9 - 0.0 - - - - - - -
26/10:30pm 16.5 W 16 18 1011.0 - 0.0 - - - - - - -
26/10:00pm 16.6 WSW 18 21 1010.9 - 0.0 - - - - - - -
26/09:30pm 16.5 WSW 17 19 1010.7 - 0.0 - - - - - - -
26/09:00pm 16.7 W 17 20 1010.2 - 0.0 - - - - - - -
26/08:30pm 16.8 W 18 21 1010.1 - 0.0 - - - - - - -
26/08:00pm 16.9 W 17 19 1009.8 - 0.0 - - - - - - -
26/07:30pm 17.7 W 17 20 1009.3 - 0.0 - - - - - - -
26/07:00pm 18.6 WSW 16 19 1009.1 - 0.0 - - - - - - -
26/06:30pm 19.0 W 18 21 1009.0 - 0.0 - - - - - - -
26/06:00pm 19.4 WSW 18 21 1008.5 - 0.0 - - - - - - -
26/05:30pm 20.0 WSW 18 22 1008.6 - 0.0 - - - - - - -
26/05:00pm 20.1 WSW 19 21 1008.5 - 0.0 - - - - - - -
26/04:30pm 20.8 WSW 17 19 1008.8 - 0.0 - - - - - - -
26/04:00pm 20.8 WSW 20 23 1008.8 - 0.0 - - - - - - -
26/03:30pm 21.3 WSW 18 21 1008.9 - 0.0 - - - - - - -
26/03:00pm 19.7 WSW 20 23 1008.8 - 0.0 - - - - - - -
26/02:30pm 20.7 WSW 17 19 1009.0 - 0.0 - - - - - - -
26/02:00pm 21.3 W 18 21 1008.9 - 0.0 - - - - - - -
26/01:30pm 21.6 WSW 16 18 1008.9 - 0.0 - - - - - - -
26/01:00pm 22.3 W 15 18 1009.0 - 0.0 - - - - - - -
26/12:30pm 21.4 WSW 16 18 1009.1 - 0.0 - - - - - - -
26/12:00pm 21.0 WSW 17 20 1008.8 - 0.0 - - - - - - -
26/11:30am 20.7 WSW 17 20 1009.1 - 0.0 - - - - - - -
26/11:00am 20.3 W 18 21 1009.2 - 0.0 - - - - - - -
26/10:30am 20.2 W 13 16 1009.0 - 0.0 - - - - - - -
26/10:00am 19.0 W 14 16 1008.9 - 0.0 - - - - - - -
26/09:30am 17.6 W 14 16 1008.7 - 0.0 - - - - - - -
26/09:00am 17.2 W 12 14 1008.1 - 0.0 - - - - - - -
26/08:30am 17.0 W 9 11 1008.3 - 0.0 - - - - - - -
26/08:00am 16.7 WNW 6 8 1008.2 - 0.0 - - - - - - -
26/07:30am 16.5 WNW 5 7 1008.0 - 0.0 - - - - - - -
26/07:00am 16.3 NNW 5 6 1008.0 - 0.0 - - - - - - -
26/06:30am 16.2 N 6 7 1007.8 - 0.0 - - - - - - -
26/06:00am 16.4 N 8 9 1007.7 - 0.0 - - - - - - -
26/05:30am 16.4 NNE 9 11 1008.0 - 0.0 - - - - - - -
26/05:00am 16.6 NE 12 14 1007.9 - 0.0 - - - - - - -
26/04:30am 16.7 NE 15 18 1008.3 - 0.0 - - - - - - -
26/04:00am 16.6 NE 15 19 1008.3 - 0.0 - - - - - - -
26/03:30am 16.9 NE 18 21 1008.4 - 0.0 - - - - - - -
26/03:00am 16.8 NE 17 21 1008.4 - 0.0 - - - - - - -

Other Formats:

Comma delimited format used in spreadsheet applications
http://www.bom.gov.au/fwo/IDT60701/IDT60701.94949.axf

JavaScript Object Notation format (JSON) in row-major order
http://www.bom.gov.au/fwo/IDT60701/IDT60701.94949.json